Time;durP1;ratioP1;P1;durP2;ratioP2;P2;SDS_P1;SDS_P2;PMS_P1;PMS_P2;Temp;Humidity;BMP_temperature;BMP_pressure;BME280_temperature;BME280_humidity;BME280_pressure;Samples;Min_cycle;Max_cycle;Signal;HPM_P1;HPM_P2
2023/07/05 00:00:19;;;;;;;;;;;;;;;24.36;45.22;100714.34;2364328;75;50754;-75
2023/07/05 00:03:20;;;;;;;;;;;;;;;24.37;45.20;100714.10;2305547;75;50874;-76
2023/07/05 00:06:22;;;;;;;;;;;;;;;24.36;45.24;100711.11;2364221;75;50657;-75
2023/07/05 00:09:23;;;;;;;;;;;;;;;24.36;45.28;100704.34;2364266;75;50423;-75
2023/07/05 00:12:25;;;;;;;;;;;;;;;24.31;45.51;100706.34;2331875;75;50678;-74
2023/07/05 00:15:27;;;;;;;;;;;;;;;24.28;45.68;100688.40;2331671;75;51647;-75
2023/07/05 00:18:29;;;;;;;;;;;;;;;24.27;45.68;100692.95;2312969;75;50309;-76
2023/07/05 00:21:31;;;;;;;;;;;;;;;24.26;45.70;100693.19;2343640;75;51362;-76
2023/07/05 00:24:32;;;;;;;;;;;;;;;24.29;45.57;100687.34;2332617;75;51545;-76
2023/07/05 00:27:34;;;;;;;;;;;;;;;24.29;45.61;100684.10;2333505;75;52448;-76
2023/07/05 00:30:35;;;;;;;;;;;;;;;24.28;45.61;100683.81;2332625;75;51518;-75
2023/07/05 00:33:37;;;;;;;;;;;;;;;24.31;45.50;100681.19;2332825;74;50287;-75
2023/07/05 00:36:39;;;;;;;;;;;;;;;24.27;45.56;100674.55;2366426;75;51551;-75
2023/07/05 00:39:40;;;;;;;;;;;;;;;24.27;45.63;100673.20;2333714;75;49803;-75
2023/07/05 00:42:42;;;;;;;;;;;;;;;24.27;45.66;100679.97;2366854;74;50270;-75
2023/07/05 00:45:51;;;;;;;;;;;;;;;24.27;45.65;100680.78;2367197;75;51520;-75
2023/07/05 00:48:54;;;;;;;;;;;;;;;24.27;45.69;100675.91;2337096;74;51486;-75
2023/07/05 00:51:57;;;;;;;;;;;;;;;24.27;45.67;100675.91;2332795;75;52573;-76
2023/07/05 00:54:59;;;;;;;;;;;;;;;24.25;45.70;100669.39;2365132;75;51497;-75
2023/07/05 00:58:02;;;;;;;;;;;;;;;24.24;45.73;100673.65;2366788;75;50763;-76
2023/07/05 01:01:04;;;;;;;;;;;;;;;24.25;45.77;100672.59;2366939;75;50675;-75
2023/07/05 01:04:05;;;;;;;;;;;;;;;24.24;45.69;100664.19;2334189;75;52466;-73
2023/07/05 01:07:07;;;;;;;;;;;;;;;24.24;45.78;100662.30;2366639;75;50645;-75
2023/07/05 01:10:13;;;;;;;;;;;;;;;24.23;45.81;100653.08;2366909;75;50244;-74
2023/07/05 01:13:16;;;;;;;;;;;;;;;24.23;45.76;100650.37;2356603;75;50715;-74
2023/07/05 01:16:35;;;;;;;;;;;;;;;24.24;45.72;100643.91;2331239;75;51727;-74
2023/07/05 01:19:56;;;;;;;;;;;;;;;24.23;45.78;100638.20;2342871;75;51427;-74
2023/07/05 01:23:00;;;;;;;;;;;;;;;24.23;45.78;100633.63;2342575;75;50796;-73
2023/07/05 01:26:09;;;;;;;;;;;;;;;24.22;45.79;100623.02;2342927;75;50774;-74
2023/07/05 01:29:24;;;;;;;;;;;;;;;24.22;45.79;100627.07;2308739;76;51280;-74
2023/07/05 01:32:34;;;;;;;;;;;;;;;24.23;45.82;100621.45;2343607;75;50727;-75
2023/07/05 01:35:37;;;;;;;;;;;;;;;24.22;45.83;100614.38;2343324;76;50879;-73
2023/07/05 01:38:39;;;;;;;;;;;;;;;24.23;45.84;100608.47;2343508;75;50363;-78
2023/07/05 01:41:40;;;;;;;;;;;;;;;24.22;45.87;100612.20;2308960;76;49292;-74
2023/07/05 01:44:43;;;;;;;;;;;;;;;24.22;45.88;100606.80;2309722;76;50762;-75
2023/07/05 01:47:49;;;;;;;;;;;;;;;24.21;45.87;100610.03;2346854;75;50723;-74
2023/07/05 01:50:59;;;;;;;;;;;;;;;24.25;45.77;100606.34;2356244;75;51397;-74
2023/07/05 01:54:23;;;;;;;;;;;;;;;24.23;45.85;100605.77;2331645;75;52664;-74
2023/07/05 01:57:24;;;;;;;;;;;;;;;24.24;45.90;100600.65;2364562;75;22339;-75
2023/07/05 02:00:26;;;;;;;;;;;;;;;24.21;46.00;100599.21;2364588;75;50317;-75
2023/07/05 02:03:29;;;;;;;;;;;;;;;24.22;45.97;100594.62;2364586;75;50633;-75
2023/07/05 02:06:31;;;;;;;;;;;;;;;24.22;45.97;100593.27;2319656;76;51039;-75
2023/07/05 02:09:37;;;;;;;;;;;;;;;24.23;45.86;100589.01;2326663;75;50690;-76
2023/07/05 02:12:40;;;;;;;;;;;;;;;24.24;45.87;100589.30;2325416;76;50268;-75
2023/07/05 02:15:42;;;;;;;;;;;;;;;24.23;45.91;100582.78;2326320;76;50761;-75
2023/07/05 02:18:43;;;;;;;;;;;;;;;24.22;45.96;100583.81;2321704;75;50983;-75
2023/07/05 02:21:46;;;;;;;;;;;;;;;24.22;45.94;100579.75;2310877;76;51422;-74
2023/07/05 02:24:51;;;;;;;;;;;;;;;24.20;45.99;100575.94;2341815;75;50072;-75
2023/07/05 02:27:53;;;;;;;;;;;;;;;24.19;46.00;100574.80;2307139;76;51557;-75
2023/07/05 02:30:55;;;;;;;;;;;;;;;24.20;46.00;100570.53;2307434;76;51608;-74
2023/07/05 02:33:56;;;;;;;;;;;;;;;24.19;46.05;100563.98;2307459;76;51471;-75
2023/07/05 02:36:58;;;;;;;;;;;;;;;24.21;46.03;100559.19;2341630;76;51467;-75
2023/07/05 02:39:59;;;;;;;;;;;;;;;24.20;46.01;100555.66;2341841;76;50444;-77
2023/07/05 02:43:01;;;;;;;;;;;;;;;24.20;45.98;100542.64;2307078;76;50996;-75
2023/07/05 02:46:03;;;;;;;;;;;;;;;24.21;45.99;100538.91;2341852;76;50235;-75
2023/07/05 02:49:04;;;;;;;;;;;;;;;24.21;45.95;100536.20;2352239;75;50638;-74
2023/07/05 02:52:06;;;;;;;;;;;;;;;24.19;45.99;100524.78;2306015;75;50271;-75
2023/07/05 02:55:08;;;;;;;;;;;;;;;24.25;45.71;100515.77;2270622;77;50423;-74
2023/07/05 02:58:09;;;;;;;;;;;;;;;24.26;45.78;100513.38;2270417;77;51378;-74
2023/07/05 03:01:11;;;;;;;;;;;;;;;24.26;45.74;100501.22;2303784;77;50751;-74
2023/07/05 03:04:14;;;;;;;;;;;;;;;24.28;45.64;100495.06;2303792;77;50099;-74
2023/07/05 03:07:15;;;;;;;;;;;;;;;24.28;45.55;100492.36;2270369;77;51450;-74
2023/07/05 03:10:17;;;;;;;;;;;;;;;24.30;45.52;100487.03;2270942;77;51469;-74
2023/07/05 03:13:18;;;;;;;;;;;;;;;24.29;45.46;100482.66;2303879;77;51505;-74
2023/07/05 03:16:20;;;;;;;;;;;;;;;24.30;45.42;100492.94;2272843;74;51562;-73
2023/07/05 03:19:22;;;;;;;;;;;;;;;24.30;45.47;100481.63;2312669;76;52368;-73
2023/07/05 03:22:23;;;;;;;;;;;;;;;24.31;45.43;100483.79;2301551;76;51642;-73
2023/07/05 03:25:25;;;;;;;;;;;;;;;24.30;45.43;100480.77;2333175;75;51582;-73
2023/07/05 03:28:28;;;;;;;;;;;;;;;24.29;45.43;100476.42;2332953;76;50584;-73
2023/07/05 03:31:30;;;;;;;;;;;;;;;24.31;45.37;100481.09;2333241;76;50320;-72
2023/07/05 03:34:31;;;;;;;;;;;;;;;24.27;45.45;100479.88;2398978;73;50376;-73
2023/07/05 03:37:33;;;;;;;;;;;;;;;24.27;45.46;100489.34;2381238;73;50184;-73
2023/07/05 03:40:35;;;;;;;;;;;;;;;24.29;45.38;100474.54;2381441;73;50659;-73
2023/07/05 03:43:36;;;;;;;;;;;;;;;24.29;45.36;100476.42;2381421;73;50928;-73
2023/07/05 03:46:38;;;;;;;;;;;;;;;24.30;45.29;100474.01;2404166;73;50409;-73
2023/07/05 03:49:40;;;;;;;;;;;;;;;24.33;45.21;100481.69;2344190;75;50246;-73
2023/07/05 03:52:41;;;;;;;;;;;;;;;24.31;45.20;100472.45;2331711;75;50015;-73
2023/07/05 03:55:43;;;;;;;;;;;;;;;24.34;45.20;100471.98;2305559;75;52279;-74
2023/07/05 03:58:44;;;;;;;;;;;;;;;24.34;45.18;100469.81;2331473;75;51435;-73
2023/07/05 04:01:46;;;;;;;;;;;;;;;24.33;45.17;100473.58;2331658;75;49965;-73
2023/07/05 04:04:48;;;;;;;;;;;;;;;24.33;45.20;100466.82;2331817;75;51359;-73
2023/07/05 04:07:49;;;;;;;;;;;;;;;24.30;45.29;100467.25;2364037;75;50367;-73
2023/07/05 04:10:51;;;;;;;;;;;;;;;24.31;45.24;100455.40;2331971;75;50002;-73
2023/07/05 04:13:53;;;;;;;;;;;;;;;24.30;45.30;100449.17;2364177;75;50360;-73
2023/07/05 04:16:55;;;;;;;;;;;;;;;24.31;45.22;100444.58;2330210;75;50750;-74
2023/07/05 04:19:56;;;;;;;;;;;;;;;24.32;45.27;100447.58;2312285;75;50185;-73
2023/07/05 04:22:59;;;;;;;;;;;;;;;24.31;45.24;100442.70;2323612;76;50725;-74
2023/07/05 04:26:03;;;;;;;;;;;;;;;24.30;45.32;100432.09;2326297;76;50399;-74
2023/07/05 04:29:04;;;;;;;;;;;;;;;24.32;45.30;100435.41;2325600;76;50287;-73
2023/07/05 04:32:06;;;;;;;;;;;;;;;24.30;45.37;100432.09;2325797;75;50280;-73
2023/07/05 04:35:08;;;;;;;;;;;;;;;24.26;45.48;100420.92;2320085;76;51648;-73
2023/07/05 04:38:10;;;;;;;;;;;;;;;24.29;45.37;100410.17;2319933;76;50785;-73
2023/07/05 04:41:11;;;;;;;;;;;;;;;24.28;45.37;100416.11;2320088;76;51506;-73
2023/07/05 04:44:13;;;;;;;;;;;;;;;24.27;45.50;100408.22;2294520;76;51685;-73
2023/07/05 04:47:16;;;;;;;;;;;;;;;24.28;45.49;100405.30;2330549;75;51534;-73
2023/07/05 04:50:17;;;;;;;;;;;;;;;24.28;45.50;100397.72;2339065;75;50659;-73
2023/07/05 04:53:22;;;;;;;;;;;;;;;24.34;45.38;100396.27;2316992;76;51516;-73
2023/07/05 04:56:24;;;;;;;;;;;;;;;24.34;45.52;100395.45;2316720;75;50133;-73
2023/07/05 04:59:27;;;;;;;;;;;;;;;24.37;45.94;100394.98;2290868;76;52453;-73
2023/07/05 05:02:29;;;;;;;;;;;;;;;24.37;45.76;100393.64;2355512;75;51418;-72
2023/07/05 05:05:30;;;;;;;;;;;;;;;24.40;45.43;100395.88;2327183;75;51397;-74
2023/07/05 05:08:32;;;;;;;;;;;;;;;24.39;45.36;100388.83;2263778;76;51455;-72
2023/07/05 05:11:33;;;;;;;;;;;;;;;24.36;45.37;100380.36;2314438;75;51519;-74
2023/07/05 05:14:35;;;;;;;;;;;;;;;24.35;44.15;100372.75;2333611;75;51408;-73
2023/07/05 05:17:36;;;;;;;;;;;;;;;24.30;43.04;100362.64;2319680;76;50631;-73
2023/07/05 05:20:38;;;;;;;;;;;;;;;24.27;42.40;100375.23;2356431;75;50033;-74
2023/07/05 05:23:40;;;;;;;;;;;;;;;24.24;41.99;100375.70;2330951;75;52407;-75
2023/07/05 05:26:42;;;;;;;;;;;;;;;24.24;41.69;100373.53;2363464;75;50228;-74
2023/07/05 05:29:43;;;;;;;;;;;;;;;24.22;42.40;100372.92;2363877;75;51520;-74
2023/07/05 05:32:48;;;;;;;;;;;;;;;24.22;42.71;100363.47;2332896;75;51408;-75
2023/07/05 05:35:50;;;;;;;;;;;;;;;24.24;42.85;100354.07;2289156;76;52463;-75
2023/07/05 05:38:51;;;;;;;;;;;;;;;24.32;42.82;100340.23;2325634;76;51420;-74
2023/07/05 05:41:53;;;;;;;;;;;;;;;24.31;42.94;100344.53;2325707;76;50670;-74
2023/07/05 05:44:54;;;;;;;;;;;;;;;24.32;42.95;100332.65;2320441;76;50599;-75
2023/07/05 05:47:56;;;;;;;;;;;;;;;24.34;43.00;100331.91;2299649;75;51194;-75
2023/07/05 05:50:58;;;;;;;;;;;;;;;24.36;43.06;100326.28;2300731;76;50536;-75
2023/07/05 05:53:59;;;;;;;;;;;;;;;24.38;43.20;100318.73;2336822;74;50321;-75
2023/07/05 05:57:02;;;;;;;;;;;;;;;24.42;43.20;100316.70;2353611;73;50769;-76
2023/07/05 06:00:04;;;;;;;;;;;;;;;24.38;43.40;100320.09;2373709;74;50103;-76
2023/07/05 06:03:06;;;;;;;;;;;;;;;24.33;43.53;100311.34;2374595;73;50274;-72
2023/07/05 06:06:08;;;;;;;;;;;;;;;24.33;43.57;100310.80;2382829;73;50609;-76
2023/07/05 06:09:10;;;;;;;;;;;;;;;24.34;43.50;100311.63;2370865;75;50727;-75
2023/07/05 06:12:12;;;;;;;;;;;;;;;24.31;43.53;100292.62;2369858;74;51223;-76
2023/07/05 06:15:14;;;;;;;;;;;;;;;24.32;43.48;100278.57;2374796;74;51505;-75
2023/07/05 06:18:16;;;;;;;;;;;;;;;24.32;43.34;100274.52;2407997;73;51662;-75
2023/07/05 06:21:17;;;;;;;;;;;;;;;24.30;43.37;100276.62;2408133;73;50615;-74
2023/07/05 06:24:19;;;;;;;;;;;;;;;24.30;43.38;100279.33;2336290;75;51142;-75
2023/07/05 06:27:21;;;;;;;;;;;;;;;24.29;43.33;100277.69;2276112;76;51533;-74
2023/07/05 06:30:22;;;;;;;;;;;;;;;24.28;43.29;100258.47;2271031;77;50226;-74
2023/07/05 06:33:24;;;;;;;;;;;;;;;24.26;43.29;100257.34;2303947;77;50239;-75
2023/07/05 06:36:25;;;;;;;;;;;;;;;24.26;43.26;100248.41;2245775;77;49477;-75
2023/07/05 06:39:27;;;;;;;;;;;;;;;24.25;43.14;100244.04;2360781;73;50226;-75
2023/07/05 06:42:29;;;;;;;;;;;;;;;24.26;43.12;100234.89;2380359;73;50151;-74
2023/07/05 06:45:30;;;;;;;;;;;;;;;24.26;43.10;100229.48;2301391;74;50782;-73
2023/07/05 06:48:32;;;;;;;;;;;;;;;24.26;43.18;100224.89;2289868;75;52454;-73
2023/07/05 06:51:33;;;;;;;;;;;;;;;24.29;43.10;100220.91;2320502;75;50752;-75
2023/07/05 06:54:35;;;;;;;;;;;;;;;24.34;42.97;100216.45;2318044;75;50610;-75
2023/07/05 06:57:37;;;;;;;;;;;;;;;24.33;42.85;100218.05;2316400;75;50600;-74
2023/07/05 07:00:38;;;;;;;;;;;;;;;24.39;42.91;100213.05;2333206;75;51164;-75
2023/07/05 07:03:40;;;;;;;;;;;;;;;24.40;42.85;100214.69;2333015;75;50269;-75
2023/07/05 07:06:41;;;;;;;;;;;;;;;24.41;42.84;100210.13;2365863;75;50188;-77
2023/07/05 07:09:43;;;;;;;;;;;;;;;24.37;42.96;100231.38;2366374;75;50180;-75
2023/07/05 07:12:45;;;;;;;;;;;;;;;24.31;43.08;100224.21;2366400;75;50081;-75
2023/07/05 07:15:46;;;;;;;;;;;;;;;24.28;43.12;100226.03;2304221;75;50323;-75
2023/07/05 07:18:48;;;;;;;;;;;;;;;24.32;43.01;100225.31;2294192;76;50408;-76
2023/07/05 07:21:50;;;;;;;;;;;;;;;24.31;43.00;100243.95;2325556;75;51493;-74
2023/07/05 07:24:51;;;;;;;;;;;;;;;24.34;43.03;100229.97;2285847;75;51130;-75
2023/07/05 07:27:53;;;;;;;;;;;;;;;24.37;42.87;100231.38;2303489;76;50216;-75
2023/07/05 07:30:55;;;;;;;;;;;;;;;24.41;42.74;100219.59;2309665;76;50251;-76
2023/07/05 07:33:56;;;;;;;;;;;;;;;24.41;42.58;100219.06;2294611;76;49764;-74
2023/07/05 07:36:58;;;;;;;;;;;;;;;24.40;42.55;100210.63;2332789;75;51450;-73
2023/07/05 07:40:00;;;;;;;;;;;;;;;24.40;42.87;100203.88;2366229;75;50653;-75
2023/07/05 07:43:02;;;;;;;;;;;;;;;24.39;42.74;100192.77;2366317;75;51436;-75
2023/07/05 07:46:08;;;;;;;;;;;;;;;24.37;43.17;100208.40;2366518;74;51484;-75
2023/07/05 07:49:10;;;;;;;;;;;;;;;24.41;42.87;100209.59;2364817;75;50420;-75
2023/07/05 07:52:13;;;;;;;;;;;;;;;24.42;42.81;100206.36;2330360;75;50590;-74
2023/07/05 07:55:15;;;;;;;;;;;;;;;24.42;42.77;100207.70;2343113;75;22724;-75
2023/07/05 07:58:16;;;;;;;;;;;;;;;24.40;42.78;100210.63;2336771;75;51435;-74
2023/07/05 08:01:19;;;;;;;;;;;;;;;24.39;42.76;100202.77;2316977;76;51583;-75
2023/07/05 08:04:21;;;;;;;;;;;;;;;24.39;42.68;100222.52;2336816;76;50657;-74
2023/07/05 08:07:22;;;;;;;;;;;;;;;24.39;42.71;100219.81;2316855;76;50654;-74
2023/07/05 08:10:24;;;;;;;;;;;;;;;24.37;42.70;100225.98;2336858;74;49869;-74
2023/07/05 08:13:25;;;;;;;;;;;;;;;24.35;42.69;100236.19;2290925;76;51177;-74
2023/07/05 08:16:27;;;;;;;;;;;;;;;24.33;42.70;100243.73;2316858;76;50356;-74
2023/07/05 08:19:29;;;;;;;;;;;;;;;24.33;42.69;100245.91;2354584;73;50355;-74
2023/07/05 08:22:30;;;;;;;;;;;;;;;24.33;42.68;100245.09;2396082;73;50696;-74
2023/07/05 08:25:33;;;;;;;;;;;;;;;24.33;42.71;100247.80;2299419;75;52384;-76
2023/07/05 08:28:35;;;;;;;;;;;;;;;24.32;42.71;100252.35;2331698;75;50504;-73
2023/07/05 08:31:37;;;;;;;;;;;;;;;24.31;42.72;100243.14;2331547;75;50148;-73
2023/07/05 08:34:38;;;;;;;;;;;;;;;24.30;42.71;100232.85;2363850;75;51528;-75
2023/07/05 08:37:40;;;;;;;;;;;;;;;24.32;42.68;100241.53;2304746;75;52031;-74
2023/07/05 08:40:41;;;;;;;;;;;;;;;24.32;42.70;100246.95;2331512;75;51456;-74
2023/07/05 08:43:51;;;;;;;;;;;;;;;24.30;42.74;100236.91;2363913;75;51515;-75
2023/07/05 08:46:57;;;;;;;;;;;;;;;24.32;42.75;100246.12;2363749;75;50344;-75
2023/07/05 08:50:12;;;;;;;;;;;;;;;24.32;42.72;100238.83;2331315;75;52528;-74
2023/07/05 08:53:15;;;;;;;;;;;;;;;24.32;42.71;100230.72;2252185;77;50350;-74
2023/07/05 08:56:18;;;;;;;;;;;;;;;24.33;42.78;100228.86;2252288;79;51531;-74
2023/07/05 08:59:26;;;;;;;;;;;;;;;24.33;42.78;100224.81;2252861;79;51448;-75
2023/07/05 09:02:27;;;;;;;;;;;;;;;24.32;42.80;100227.20;2228855;79;51472;-74
2023/07/05 09:05:32;;;;;;;;;;;;;;;24.32;42.84;100228.55;2253627;79;51487;-74
2023/07/05 09:08:48;;;;;;;;;;;;;;;24.31;42.83;100242.60;2253440;77;51520;-75
2023/07/05 09:11:54;;;;;;;;;;;;;;;24.32;42.86;100248.83;2253880;77;51527;-74
2023/07/05 09:15:12;;;;;;;;;;;;;;;24.31;42.84;100233.67;2228884;79;52520;-74
2023/07/05 09:18:21;;;;;;;;;;;;;;;24.32;42.85;100228.02;2252546;79;51456;-74
2023/07/05 09:21:27;;;;;;;;;;;;;;;24.35;42.82;100236.19;2253757;79;50389;-74
2023/07/05 09:24:29;;;;;;;;;;;;;;;24.34;42.75;100238.08;2253516;77;51461;-74
2023/07/05 09:27:32;;;;;;;;;;;;;;;24.35;42.77;100229.43;2228751;78;51752;-75
2023/07/05 09:30:34;;;;;;;;;;;;;;;24.34;42.77;100225.09;2365182;75;50846;-75
2023/07/05 09:33:38;;;;;;;;;;;;;;;24.32;42.81;100235.31;2366347;75;50397;-74
2023/07/05 09:36:40;;;;;;;;;;;;;;;24.31;42.86;100229.08;2366207;75;51547;-76
2023/07/05 09:39:46;;;;;;;;;;;;;;;24.31;42.86;100222.33;2366429;75;51531;-76
2023/07/05 09:42:55;;;;;;;;;;;;;;;24.31;42.89;100234.48;2365793;75;50308;-76
2023/07/05 09:45:58;;;;;;;;;;;;;;;24.31;42.88;100232.32;2366345;75;50269;-75
2023/07/05 09:49:00;;;;;;;;;;;;;;;24.31;42.85;100225.03;2366264;75;50779;-75
2023/07/05 09:52:01;;;;;;;;;;;;;;;24.30;42.76;100231.50;2332602;75;50940;-76
2023/07/05 09:55:03;;;;;;;;;;;;;;;24.29;42.80;100228.48;2346096;73;51378;-76
2023/07/05 09:58:07;;;;;;;;;;;;;;;24.29;42.83;100227.66;2303549;77;51492;-76
2023/07/05 10:01:11;;;;;;;;;;;;;;;24.30;42.84;100229.30;2302974;77;50054;-75
2023/07/05 10:04:13;;;;;;;;;;;;;;;24.29;42.82;100233.08;2270211;77;51732;-77
2023/07/05 10:07:16;;;;;;;;;;;;;;;24.27;42.83;100222.48;2321224;74;51466;-76
2023/07/05 10:10:18;;;;;;;;;;;;;;;24.25;42.90;100223.27;2348238;74;50813;-76
2023/07/05 10:13:21;;;;;;;;;;;;;;;24.26;42.94;100220.02;2317595;76;51005;-77
2023/07/05 10:16:23;;;;;;;;;;;;;;;24.26;43.08;100232.19;2333080;75;51212;-76
2023/07/05 10:19:29;;;;;;;;;;;;;;;24.31;43.08;100223.67;2317827;74;51446;-75
2023/07/05 10:22:34;;;;;;;;;;;;;;;24.32;43.06;100219.09;2384269;74;50362;-76
2023/07/05 10:25:36;;;;;;;;;;;;;;;24.33;43.22;100222.92;2350849;73;51592;-75
2023/07/05 10:28:37;;;;;;;;;;;;;;;24.32;43.34;100219.09;2309227;74;51201;-75
2023/07/05 10:31:41;;;;;;;;;;;;;;;24.32;43.45;100218.55;2382650;74;51557;-77
2023/07/05 10:34:47;;;;;;;;;;;;;;;24.32;43.55;100194.75;2317643;76;22399;-76
2023/07/05 10:37:45;;;;;;;;;;;;;;;24.34;43.77;100208.88;2335907;76;22894;-77
2023/07/05 10:40:47;;;;;;;;;;;;;;;24.37;43.63;100200.28;2317011;76;52531;-75
2023/07/05 10:43:53;;;;;;;;;;;;;;;24.37;43.66;100198.94;2336986;75;51387;-76
2023/07/05 10:46:55;;;;;;;;;;;;;;;24.34;43.76;100198.88;2336734;76;51519;-76
2023/07/05 10:49:59;;;;;;;;;;;;;;;24.34;43.79;100194.00;2337003;76;51512;-77
2023/07/05 10:53:04;;;;;;;;;;;;;;;24.33;43.96;100197.77;2324494;75;52699;-78
2023/07/05 10:56:06;;;;;;;;;;;;;;;24.35;43.95;100196.98;2354808;75;51505;-76
2023/07/05 10:59:16;;;;;;;;;;;;;;;24.33;44.01;100187.77;2364000;75;50687;-75
2023/07/05 11:02:28;;;;;;;;;;;;;;;24.33;44.03;100194.53;2364010;75;50632;-76
2023/07/05 11:05:35;;;;;;;;;;;;;;;24.35;44.13;100196.98;2331211;75;51819;-76
2023/07/05 11:08:38;;;;;;;;;;;;;;;24.36;44.15;100195.12;2363762;75;50949;-76
2023/07/05 11:11:42;;;;;;;;;;;;;;;24.38;44.13;100193.84;2362819;75;50325;-76
2023/07/05 11:14:43;;;;;;;;;;;;;;;24.38;44.16;100216.83;2363999;75;51557;-76
2023/07/05 11:17:46;;;;;;;;;;;;;;;24.42;44.11;100222.05;2331330;75;52267;-76
2023/07/05 11:20:49;;;;;;;;;;;;;;;24.42;44.19;100219.87;2364044;75;50452;-75
2023/07/05 11:23:52;;;;;;;;;;;;;;;24.38;44.37;100221.38;2350310;75;52403;-76
2023/07/05 11:26:54;;;;;;;;;;;;;;;24.38;44.58;100224.09;2337415;76;51444;-76
2023/07/05 11:29:55;;;;;;;;;;;;;;;24.41;44.52;100223.12;2316848;76;52705;-76
2023/07/05 11:33:04;;;;;;;;;;;;;;;24.47;44.48;100211.39;2336954;75;51512;-75
2023/07/05 11:36:25;;;;;;;;;;;;;;;24.37;44.89;100205.69;2336966;75;50312;-78
2023/07/05 11:39:37;;;;;;;;;;;;;;;24.37;44.83;100201.64;2336967;75;50374;-76
2023/07/05 11:42:38;;;;;;;;;;;;;;;24.38;44.81;100208.71;2317021;76;51166;-77
2023/07/05 11:45:42;;;;;;;;;;;;;;;24.39;44.90;100208.18;2317235;76;52324;-77
2023/07/05 11:48:43;;;;;;;;;;;;;;;24.40;44.87;100200.34;2335615;76;51344;-77
2023/07/05 11:51:45;;;;;;;;;;;;;;;24.40;44.99;100210.63;2336948;76;51522;-78
2023/07/05 11:54:54;;;;;;;;;;;;;;;24.41;45.00;100208.24;2347606;75;51445;-75
2023/07/05 11:58:09;;;;;;;;;;;;;;;24.42;45.05;100204.47;2336781;76;50619;-77
2023/07/05 12:01:12;;;;;;;;;;;;;;;24.43;45.11;100213.40;2336899;76;51554;-76
2023/07/05 12:04:16;;;;;;;;;;;;;;;24.45;45.08;100209.44;2336873;75;50706;-76
2023/07/05 12:07:17;;;;;;;;;;;;;;;24.46;45.14;100201.64;2316138;76;51250;-75
2023/07/05 12:10:21;;;;;;;;;;;;;;;24.46;45.12;100194.88;2336922;76;51519;-76
2023/07/05 12:13:23;;;;;;;;;;;;;;;24.41;45.35;100201.48;2336863;76;51534;-76
2023/07/05 12:16:24;;;;;;;;;;;;;;;24.39;45.44;100202.23;2336685;74;51649;-76
2023/07/05 12:19:30;;;;;;;;;;;;;;;24.39;45.48;100188.72;2291346;76;52583;-75
2023/07/05 12:22:31;;;;;;;;;;;;;;;24.42;45.37;100184.19;2338347;75;50759;-76
2023/07/05 12:25:33;;;;;;;;;;;;;;;24.44;45.39;100180.73;2321510;75;51517;-76
2023/07/05 12:28:36;;;;;;;;;;;;;;;24.41;45.48;100173.09;2363798;75;51447;-77
2023/07/05 12:31:37;;;;;;;;;;;;;;;24.40;45.50;100183.59;2305676;75;51227;-77
2023/07/05 12:34:39;;;;;;;;;;;;;;;24.40;45.48;100189.00;2364013;75;51558;-77
2023/07/05 12:37:40;;;;;;;;;;;;;;;24.42;45.35;100179.31;2331566;75;50001;-76
2023/07/05 12:40:42;;;;;;;;;;;;;;;24.46;45.26;100190.00;2331303;75;52324;-76
2023/07/05 12:43:44;;;;;;;;;;;;;;;24.41;45.35;100195.25;2299564;75;51094;-76
2023/07/05 12:46:46;;;;;;;;;;;;;;;24.46;45.17;100193.53;2311713;76;51456;-76
2023/07/05 12:49:48;;;;;;;;;;;;;;;24.41;45.28;100179.84;2319056;76;51425;-76
2023/07/05 12:53:06;;;;;;;;;;;;;;;24.41;45.23;100181.20;2328059;75;50260;-76
2023/07/05 12:56:09;;;;;;;;;;;;;;;24.45;45.20;100174.81;2303957;76;52588;-77
2023/07/05 12:59:25;;;;;;;;;;;;;;;24.44;45.22;100169.91;2341453;76;50318;-76
2023/07/05 13:02:29;;;;;;;;;;;;;;;24.44;45.20;100170.45;2349258;75;51511;-76
2023/07/05 13:05:30;;;;;;;;;;;;;;;24.43;45.21;100176.89;2366436;75;51531;-76
2023/07/05 13:08:32;;;;;;;;;;;;;;;24.44;45.21;100181.27;2333441;75;52673;-76
2023/07/05 13:11:33;;;;;;;;;;;;;;;24.39;45.28;100175.20;2366395;73;50389;-76
2023/07/05 13:14:36;;;;;;;;;;;;;;;24.41;45.24;100169.56;2366390;75;50630;-76
2023/07/05 13:17:38;;;;;;;;;;;;;;;24.43;45.13;100172.33;2366367;75;50459;-76
2023/07/05 13:20:41;;;;;;;;;;;;;;;24.40;45.24;100169.25;2333844;75;50093;-76
2023/07/05 13:23:44;;;;;;;;;;;;;;;24.38;45.30;100161.39;2325280;75;51425;-76
2023/07/05 13:26:46;;;;;;;;;;;;;;;24.41;45.29;100170.92;2337813;76;50710;-76
2023/07/05 13:29:47;;;;;;;;;;;;;;;24.42;45.23;100159.84;2336935;75;51511;-76
2023/07/05 13:32:53;;;;;;;;;;;;;;;24.39;45.28;100157.62;2316993;76;51630;-77
2023/07/05 13:35:55;;;;;;;;;;;;;;;24.39;45.38;100167.08;2317244;76;50453;-75
2023/07/05 13:38:56;;;;;;;;;;;;;;;24.36;45.43;100204.06;2336661;75;51586;-77
2023/07/05 13:42:05;;;;;;;;;;;;;;;24.36;45.51;100182.42;2336903;76;50228;-76
2023/07/05 13:45:04;;;;;;;;;;;;;;;24.39;45.41;100209.53;2317683;76;22304;-77
2023/07/05 13:48:06;;;;;;;;;;;;;;;24.38;45.59;100214.13;2317375;76;51463;-76
2023/07/05 13:51:09;;;;;;;;;;;;;;;24.41;45.71;100216.36;2337407;75;51392;-78
2023/07/05 13:54:11;;;;;;;;;;;;;;;24.42;45.84;100216.64;2344594;74;51518;-76
2023/07/05 13:57:15;;;;;;;;;;;;;;;24.47;45.92;100201.92;2304638;76;52557;-75
2023/07/05 14:00:17;;;;;;;;;;;;;;;24.46;46.19;100216.52;2332815;76;50490;-78
2023/07/05 14:03:19;;;;;;;;;;;;;;;24.46;46.29;100200.28;2333042;76;51437;-76
2023/07/05 14:06:26;;;;;;;;;;;;;;;24.50;46.13;100192.52;2333138;75;50598;-77
2023/07/05 14:09:29;;;;;;;;;;;;;;;24.48;46.15;100203.59;2333487;76;22890;-77
2023/07/05 14:12:30;;;;;;;;;;;;;;;24.47;46.06;100195.16;2302203;76;50462;-76
2023/07/05 14:15:37;;;;;;;;;;;;;;;24.51;46.00;100195.54;2333373;75;50831;-77
2023/07/05 14:18:38;;;;;;;;;;;;;;;24.48;45.93;100200.03;2330933;75;50677;-77
2023/07/05 14:21:40;;;;;;;;;;;;;;;24.50;45.70;100214.16;2275984;76;51194;-76
2023/07/05 14:24:42;;;;;;;;;;;;;;;24.52;45.57;100216.92;2321381;75;51877;-77
2023/07/05 14:27:43;;;;;;;;;;;;;;;24.52;45.47;100204.75;2336823;75;50340;-77
2023/07/05 14:30:45;;;;;;;;;;;;;;;24.54;45.32;100211.30;2337150;75;50232;-77
2023/07/05 14:33:47;;;;;;;;;;;;;;;24.54;45.28;100210.76;2291564;76;52427;-76
2023/07/05 14:36:48;;;;;;;;;;;;;;;24.53;45.31;100217.73;2317063;76;50131;-78
2023/07/05 14:39:50;;;;;;;;;;;;;;;24.57;45.21;100221.64;2337241;75;50273;-77
2023/07/05 14:42:52;;;;;;;;;;;;;;;24.55;45.21;100216.45;2317356;76;50342;-77
2023/07/05 14:45:53;;;;;;;;;;;;;;;24.60;45.03;100227.11;2317352;76;52618;-76
2023/07/05 14:48:55;;;;;;;;;;;;;;;24.63;44.79;100241.52;2317895;76;51420;-78
2023/07/05 14:51:57;;;;;;;;;;;;;;;24.67;44.58;100258.95;2337565;76;50359;-77
2023/07/05 14:54:58;;;;;;;;;;;;;;;24.63;44.52;100261.81;2349711;73;50307;-76
2023/07/05 14:58:00;;;;;;;;;;;;;;;24.60;44.50;100253.63;2305565;75;49396;-76
2023/07/05 15:01:02;;;;;;;;;;;;;;;24.59;44.42;100260.11;2331963;75;50409;-77
2023/07/05 15:04:04;;;;;;;;;;;;;;;24.61;44.33;100265.27;2364481;75;50425;-77
2023/07/05 15:07:07;;;;;;;;;;;;;;;24.63;44.23;100260.45;2331441;75;51498;-77
2023/07/05 15:10:10;;;;;;;;;;;;;;;24.62;44.19;100268.28;2331823;75;52709;-76
2023/07/05 15:13:12;;;;;;;;;;;;;;;24.59;44.16;100265.52;2319795;75;50269;-77
2023/07/05 15:16:15;;;;;;;;;;;;;;;24.59;44.11;100272.81;2366584;75;50621;-76
2023/07/05 15:19:17;;;;;;;;;;;;;;;24.59;44.07;100281.75;2365223;75;50119;-77
2023/07/05 15:22:19;;;;;;;;;;;;;;;24.55;44.01;100285.42;2329894;73;51662;-77
2023/07/05 15:25:20;;;;;;;;;;;;;;;24.55;43.89;100285.42;2349027;75;51671;-76
2023/07/05 15:28:22;;;;;;;;;;;;;;;24.57;43.77;100306.03;2341402;76;50655;-77
2023/07/05 15:31:25;;;;;;;;;;;;;;;24.60;43.56;100300.15;2307296;76;51313;-77
2023/07/05 15:34:27;;;;;;;;;;;;;;;24.57;43.55;100316.85;2282275;76;51098;-78
2023/07/05 15:37:28;;;;;;;;;;;;;;;24.57;43.45;100320.91;2307381;76;50034;-78